Time;durP1;ratioP1;P1;durP2;ratioP2;P2;SDS_P1;SDS_P2;PMS_P1;PMS_P2;Temp;Humidity;BMP_temperature;BMP_pressure;BME280_temperature;BME280_humidity;BME280_pressure;Samples;Min_cycle;Max_cycle;Signal;HPM_P1;HPM_P2
2023/03/02 00:02:16;;;;;;;2.83;2.50;;;;;;;4.77;100.00;101860.84;5084263;28;20039;-78
2023/03/02 00:04:55;;;;;;;3.08;2.60;;;;;;;4.80;100.00;101854.63;5080535;28;20489;-78
2023/03/02 00:07:26;;;;;;;9.45;4.30;;;;;;;4.80;100.00;101862.47;5080383;28;20032;-78
2023/03/02 00:09:53;;;;;;;6.32;3.63;;;;;;;4.82;100.00;101861.50;5084379;28;20043;-78
2023/03/02 00:12:19;;;;;;;4.22;3.17;;;;;;;4.82;100.00;101856.25;5080830;28;20106;-78
2023/03/02 00:14:45;;;;;;;7.22;4.43;;;;;;;4.78;100.00;101862.53;5078490;28;20453;-78
2023/03/02 00:17:11;;;;;;;4.38;3.35;;;;;;;4.80;100.00;101859.84;5081966;28;20039;-78
2023/03/02 00:19:37;;;;;;;9.30;3.78;;;;;;;4.78;100.00;101859.94;5074868;28;20028;-78
2023/03/02 00:22:04;;;;;;;6.05;3.63;;;;;;;4.78;100.00;101854.69;5084023;28;20047;-78
2023/03/02 00:24:29;;;;;;;5.47;4.05;;;;;;;4.78;100.00;101848.63;5083945;28;20035;-79
2023/03/02 00:26:55;;;;;;;5.95;3.40;;;;;;;4.78;100.00;101853.84;5081611;28;20028;-78
2023/03/02 00:29:21;;;;;;;5.60;4.05;;;;;;;4.77;100.00;101850.38;5083887;28;20028;-79
2023/03/02 00:31:47;;;;;;;3.67;2.70;;;;;;;4.75;100.00;101853.97;5098186;28;20412;-78
2023/03/02 00:34:14;;;;;;;7.22;3.92;;;;;;;4.77;100.00;101852.13;5075112;28;20078;-78
2023/03/02 00:36:39;;;;;;;6.10;4.03;;;;;;;4.78;100.00;101846.00;5087749;28;20063;-79
2023/03/02 00:39:05;;;;;;;6.10;3.40;;;;;;;4.76;100.00;101845.22;5074932;28;20082;-79
2023/03/02 00:41:31;;;;;;;4.70;3.35;;;;;;;4.76;100.00;101843.41;5090022;28;20032;-79
2023/03/02 00:43:57;;;;;;;4.88;3.80;;;;;;;4.72;100.00;101832.25;5064298;28;20084;-79
2023/03/02 00:46:23;;;;;;;7.93;3.78;;;;;;;4.74;100.00;101832.19;5075540;28;20032;-78
2023/03/02 00:48:51;;;;;;;6.75;2.83;;;;;;;4.70;100.00;101823.63;5056814;28;20035;-78
2023/03/02 00:51:18;;;;;;;5.72;4.00;;;;;;;4.70;100.00;101825.38;5060956;28;20036;-78
2023/03/02 00:53:43;;;;;;;6.40;3.17;;;;;;;4.69;100.00;101824.53;5074131;28;20035;-79
2023/03/02 00:56:10;;;;;;;5.68;3.67;;;;;;;4.69;100.00;101823.69;5079788;28;20039;-78
2023/03/02 00:58:40;;;;;;;5.95;3.35;;;;;;;4.69;100.00;101827.16;5080897;28;20032;-79
2023/03/02 01:01:10;;;;;;;5.43;3.28;;;;;;;4.71;100.00;101827.09;5092893;28;20036;-78
2023/03/02 01:03:38;;;;;;;6.82;4.03;;;;;;;4.69;100.00;101824.53;5066559;28;20481;-78
2023/03/02 01:06:12;;;;;;;6.38;3.50;;;;;;;4.68;100.00;101824.63;5077233;28;20032;-79
2023/03/02 01:08:39;;;;;;;6.13;3.70;;;;;;;4.69;100.00;101819.31;5074820;28;20040;-78
2023/03/02 01:11:12;;;;;;;6.70;4.80;;;;;;;4.71;100.00;101819.22;5080544;28;20388;-78
2023/03/02 01:13:39;;;;;;;6.18;2.78;;;;;;;4.66;100.00;101814.22;5081319;28;20099;-79
2023/03/02 01:16:05;;;;;;;9.07;4.28;;;;;;;4.68;100.00;101814.13;5062317;28;21197;-79
2023/03/02 01:18:31;;;;;;;7.20;3.72;;;;;;;4.68;100.00;101811.53;5079227;28;20381;-78
2023/03/02 01:21:07;;;;;;;6.38;3.97;;;;;;;4.71;100.00;101814.81;5095045;28;20396;-79
2023/03/02 01:23:32;;;;;;;7.35;2.45;;;;;;;4.64;100.00;101807.31;5058208;28;20028;-79
2023/03/02 01:25:58;;;;;;;12.95;5.47;;;;;;;4.64;100.00;101815.19;5077638;28;20035;-79
2023/03/02 01:28:24;;;;;;;12.32;5.55;;;;;;;4.65;100.00;101812.50;5080481;28;20040;-78
2023/03/02 01:30:50;;;;;;;7.60;3.88;;;;;;;4.68;100.00;101808.91;5075641;28;20423;-79
2023/03/02 01:33:15;;;;;;;8.50;3.85;;;;;;;4.70;100.00;101804.41;5073684;28;20040;-79
2023/03/02 01:35:44;;;;;;;8.25;4.15;;;;;;;4.71;100.00;101796.50;5083858;28;20395;-78
2023/03/02 01:38:10;;;;;;;11.20;4.65;;;;;;;4.70;100.00;101796.56;5085562;28;20028;-78
2023/03/02 01:40:36;;;;;;;10.10;3.50;;;;;;;4.68;100.00;101791.41;5085305;28;20073;-78
2023/03/02 01:43:03;;;;;;;7.70;3.97;;;;;;;4.69;100.00;101794.88;5089599;28;20043;-78
2023/03/02 01:45:53;;;;;;;3.97;2.38;;;;;;;4.74;100.00;101792.91;5079641;28;20731;-78
2023/03/02 01:48:48;;;;;;;8.35;3.53;;;;;;;4.71;100.00;101791.25;5067277;28;20039;-78
2023/03/02 01:51:24;;;;;;;5.40;3.00;;;;;;;4.68;100.00;101786.16;5082948;28;20063;-78
2023/03/02 01:53:54;;;;;;;8.95;3.70;;;;;;;4.68;100.00;101780.09;5046144;28;20044;-78
2023/03/02 01:56:26;;;;;;;7.80;2.78;;;;;;;4.64;100.00;101783.75;5084156;28;20032;-79
2023/03/02 01:59:00;;;;;;;6.30;1.95;;;;;;;4.64;100.00;101779.38;5062641;28;20393;-79
2023/03/02 02:01:33;;;;;;;4.38;1.98;;;;;;;4.65;100.00;101770.59;5054502;28;20071;-78
2023/03/02 02:04:00;;;;;;;4.57;2.10;;;;;;;4.63;100.00;101774.22;5075587;28;20020;-79
2023/03/02 02:06:39;;;;;;;2.83;1.60;;;;;;;4.65;100.00;101775.00;5088686;28;20040;-78
2023/03/02 02:09:09;;;;;;;3.60;2.08;;;;;;;4.63;100.00;101772.44;5079098;28;20036;-78
2023/03/02 02:11:35;;;;;;;2.70;1.33;;;;;;;4.61;100.00;101770.81;5082377;28;20400;-78
2023/03/02 02:14:02;;;;;;;6.20;1.40;;;;;;;4.59;100.00;101769.13;5080941;28;20050;-78
2023/03/02 02:16:31;;;;;;;1.80;1.23;;;;;;;4.59;100.00;101770.88;5064197;28;20032;-79
2023/03/02 02:18:57;;;;;;;4.93;1.50;;;;;;;4.57;100.00;101764.88;5078379;28;20415;-78
2023/03/02 02:21:25;;;;;;;2.90;1.27;;;;;;;4.58;100.00;101756.97;5060016;28;20032;-79
2023/03/02 02:24:29;;;;;;;3.58;1.10;;;;;;;4.59;100.00;101753.41;5066514;28;20032;-79
2023/03/02 02:26:56;;;;;;;2.47;1.20;;;;;;;4.56;100.00;101755.31;5015851;28;20070;-79
2023/03/02 02:29:44;;;;;;;2.75;1.42;;;;;;;4.58;100.00;101754.34;5068019;28;20068;-78
2023/03/02 02:32:22;;;;;;;6.32;1.70;;;;;;;4.58;100.00;101750.88;5085763;28;20035;-79
2023/03/02 02:34:58;;;;;;;5.72;1.40;;;;;;;4.57;100.00;101752.63;5082410;28;20125;-79
2023/03/02 02:37:38;;;;;;;3.65;1.17;;;;;;;4.55;100.00;101748.38;5081685;28;20034;-78
2023/03/02 02:40:06;;;;;;;4.03;1.13;;;;;;;4.53;100.00;101745.84;5053409;28;20039;-79
2023/03/02 02:42:38;;;;;;;2.22;1.05;;;;;;;4.55;100.00;101741.41;5078616;28;20089;-78
2023/03/02 02:45:16;;;;;;;5.13;1.05;;;;;;;4.53;100.00;101740.59;5087019;28;20496;-78
2023/03/02 02:47:42;;;;;;;5.25;0.80;;;;;;;4.53;100.00;101734.50;5081270;28;20090;-78
2023/03/02 02:50:16;;;;;;;4.25;0.80;;;;;;;4.53;100.00;101730.13;5060743;28;20048;-78
2023/03/02 02:52:44;;;;;;;2.10;0.43;;;;;;;4.52;100.00;101727.59;5071219;28;20450;-78
2023/03/02 02:55:20;;;;;;;2.33;0.57;;;;;;;4.52;100.00;101728.44;5070732;28;20089;-79
2023/03/02 02:57:49;;;;;;;3.53;0.50;;;;;;;4.47;100.00;101725.19;5078727;28;20044;-79
2023/03/02 03:00:18;;;;;;;1.85;0.47;;;;;;;4.49;100.00;101718.09;5082194;28;20041;-78
2023/03/02 03:02:50;;;;;;;7.90;2.35;;;;;;;4.50;100.00;101713.72;5077969;28;20105;-79
2023/03/02 03:05:16;;;;;;;4.32;1.00;;;;;;;4.49;100.00;101710.22;5086032;28;20476;-79
2023/03/02 03:07:44;;;;;;;3.17;0.90;;;;;;;4.50;100.00;101719.81;5079030;28;20082;-78
2023/03/02 03:10:33;;;;;;;2.97;0.98;;;;;;;4.50;100.00;101709.34;5087055;28;20040;-78
2023/03/02 03:13:01;;;;;;;1.45;0.20;;;;;;;4.48;100.00;101703.31;5078080;28;20035;-78
2023/03/02 03:15:27;;;;;;;2.85;0.70;;;;;;;4.45;100.00;101686.00;5080918;28;20036;-78
2023/03/02 03:17:55;;;;;;;5.78;0.57;;;;;;;4.44;100.00;101679.03;5084453;28;20042;-78
2023/03/02 03:20:23;;;;;;;8.18;1.40;;;;;;;4.39;100.00;101685.44;5083071;28;20035;-78
2023/03/02 03:22:52;;;;;;;4.03;0.77;;;;;;;4.32;100.00;101680.47;5063991;28;20044;-78
2023/03/02 03:25:19;;;;;;;3.15;0.82;;;;;;;4.31;100.00;101677.94;5069121;28;20457;-79
2023/03/02 03:27:47;;;;;;;1.05;0.50;;;;;;;4.29;100.00;101678.00;5086624;28;20036;-78
2023/03/02 03:30:14;;;;;;;2.35;0.57;;;;;;;4.25;100.00;101666.00;5083657;28;20035;-79
2023/03/02 03:32:41;;;;;;;4.05;0.68;;;;;;;4.22;100.00;101674.00;5077885;28;20101;-78
2023/03/02 03:35:10;;;;;;;3.88;0.80;;;;;;;4.23;100.00;101670.44;5064651;28;20044;-78
2023/03/02 03:37:39;;;;;;;4.03;0.70;;;;;;;4.21;100.00;101667.03;5083100;28;20099;-78
2023/03/02 03:40:08;;;;;;;0.47;0.30;;;;;;;4.17;100.00;101666.34;5074514;28;20045;-78
2023/03/02 03:42:35;;;;;;;2.90;0.95;;;;;;;4.24;100.00;101668.69;5089666;28;20032;-78
2023/03/02 03:45:03;;;;;;;5.93;0.88;;;;;;;4.22;100.00;101668.75;5061279;28;20032;-78
2023/03/02 03:47:32;;;;;;;4.65;0.85;;;;;;;4.24;100.00;101666.91;5060609;28;20039;-78
2023/03/02 03:49:59;;;;;;;2.25;0.57;;;;;;;4.23;100.00;101670.44;5079528;28;20029;-78
2023/03/02 03:52:32;;;;;;;1.92;0.68;;;;;;;4.28;100.00;101672.84;5067169;28;20035;-78
2023/03/02 03:55:14;;;;;;;10.32;1.02;;;;;;;4.24;100.00;101666.91;5078416;28;20047;-79
2023/03/02 03:57:42;;;;;;;2.30;0.90;;;;;;;4.25;100.00;101666.00;5084657;28;20499;-78
2023/03/02 04:00:13;;;;;;;2.80;0.85;;;;;;;4.31;100.00;101662.22;5081079;28;20476;-78
2023/03/02 04:02:49;;;;;;;7.53;1.10;;;;;;;4.30;100.00;101664.00;5081524;28;20500;-78
2023/03/02 04:05:15;;;;;;;5.10;0.77;;;;;;;4.28;100.00;101671.09;5097001;28;20040;-78
2023/03/02 04:07:42;;;;;;;2.10;0.40;;;;;;;4.26;100.00;101661.59;5102754;27;20035;-78
2023/03/02 04:10:09;;;;;;;2.70;0.98;;;;;;;4.26;100.00;101675.53;5085536;28;20399;-78
2023/03/02 04:12:39;;;;;;;2.22;0.70;;;;;;;4.28;100.00;101675.47;5087905;28;20039;-78
2023/03/02 04:15:08;;;;;;;3.88;1.10;;;;;;;4.25;100.00;101660.78;5070259;28;20031;-78
2023/03/02 04:17:34;;;;;;;2.58;1.00;;;;;;;4.21;100.00;101662.66;5086384;28;20032;-78
2023/03/02 04:20:00;;;;;;;1.75;0.68;;;;;;;4.21;100.00;101656.59;5083630;28;20036;-78
2023/03/02 04:22:26;;;;;;;3.00;0.80;;;;;;;4.18;100.00;101661.97;5086935;28;20035;-78
2023/03/02 04:24:52;;;;;;;1.25;0.80;;;;;;;4.15;100.00;101660.34;5052321;28;20435;-78
2023/03/02 04:27:19;;;;;;;8.57;0.88;;;;;;;4.15;100.00;101657.72;5082993;28;20032;-78
2023/03/02 04:29:45;;;;;;;2.70;0.60;;;;;;;4.13;100.00;101656.94;5066214;28;20080;-78
2023/03/02 04:32:14;;;;;;;3.50;0.80;;;;;;;4.11;100.00;101650.09;5083024;28;20038;-78
2023/03/02 04:34:41;;;;;;;5.15;1.15;;;;;;;4.05;100.00;101646.84;5067800;28;20041;-78
2023/03/02 04:37:07;;;;;;;1.98;0.57;;;;;;;4.05;100.00;101649.47;5078941;28;20050;-78
2023/03/02 04:39:33;;;;;;;4.82;0.82;;;;;;;4.04;100.00;101655.63;5083917;28;20125;-78
2023/03/02 04:41:58;;;;;;;2.92;0.82;;;;;;;4.02;100.00;101646.13;5071857;28;20548;-78
2023/03/02 04:44:24;;;;;;;2.05;0.68;;;;;;;3.97;100.00;101652.44;5085259;28;20020;-78
2023/03/02 04:46:50;;;;;;;2.70;0.70;;;;;;;4.01;100.00;101647.06;5075383;28;20040;-78
2023/03/02 04:49:17;;;;;;;2.83;0.80;;;;;;;4.01;100.00;101649.66;5086459;28;20352;-78
2023/03/02 04:51:45;;;;;;;2.83;0.80;;;;;;;4.01;100.00;101650.53;5081763;28;20032;-78
2023/03/02 04:54:21;;;;;;;3.60;0.75;;;;;;;4.02;100.00;101656.59;5074206;28;20830;-78
2023/03/02 04:56:49;;;;;;;1.63;0.73;;;;;;;3.99;100.00;101649.75;5074179;28;20036;-78
2023/03/02 04:59:15;;;;;;;1.88;0.70;;;;;;;3.96;100.00;101655.97;5086102;28;20052;-78
2023/03/02 05:01:41;;;;;;;1.58;0.82;;;;;;;3.93;100.00;101644.81;5083119;28;20488;-78
2023/03/02 05:04:07;;;;;;;2.53;0.85;;;;;;;3.95;100.00;101648.19;5082991;28;20028;-78
2023/03/02 05:06:34;;;;;;;4.55;1.60;;;;;;;3.96;100.00;101657.72;5087226;28;20173;-78
2023/03/02 05:08:59;;;;;;;5.93;1.00;;;;;;;3.96;100.00;101652.50;5060518;28;20032;-78
2023/03/02 05:11:26;;;;;;;2.42;0.52;;;;;;;3.99;100.00;101654.13;5084678;28;20096;-78
2023/03/02 05:13:55;;;;;;;1.45;0.70;;;;;;;4.01;100.00;101658.38;5084057;28;20062;-78
2023/03/02 05:16:22;;;;;;;2.55;0.73;;;;;;;4.01;100.00;101647.91;5059212;28;20511;-79
2023/03/02 05:18:47;;;;;;;1.52;0.90;;;;;;;4.00;100.00;101654.03;5077916;28;20077;-78
2023/03/02 05:21:14;;;;;;;4.43;0.82;;;;;;;4.02;100.00;101649.59;5069524;28;20028;-78
2023/03/02 05:23:41;;;;;;;5.25;1.42;;;;;;;4.00;100.00;101640.13;5080362;28;20036;-78
2023/03/02 05:26:08;;;;;;;1.60;0.90;;;;;;;3.97;100.00;101633.25;5085165;28;20035;-78
2023/03/02 05:28:35;;;;;;;3.50;0.90;;;;;;;3.92;100.00;101633.47;5080267;28;20043;-79
2023/03/02 05:31:02;;;;;;;4.35;1.20;;;;;;;3.91;100.00;101630.94;5076772;28;20405;-78
2023/03/02 05:33:28;;;;;;;5.28;0.88;;;;;;;3.87;100.00;101632.00;5008453;28;20111;-79
2023/03/02 05:35:55;;;;;;;3.13;1.00;;;;;;;3.84;100.00;101641.69;5079292;28;20036;-79
2023/03/02 05:38:20;;;;;;;4.28;1.08;;;;;;;3.82;100.00;101640.06;5086898;28;20032;-79
2023/03/02 05:40:47;;;;;;;2.20;0.90;;;;;;;3.81;100.00;101636.59;5077171;28;20063;-78
2023/03/02 05:43:18;;;;;;;5.80;1.17;;;;;;;3.83;100.00;101632.16;5081940;28;20028;-79
2023/03/02 05:45:44;;;;;;;6.05;1.40;;;;;;;3.80;100.00;101632.28;5081162;28;20032;-79
2023/03/02 05:48:12;;;;;;;2.97;1.52;;;;;;;3.79;100.00;101625.34;5091832;28;20057;-79
2023/03/02 05:50:38;;;;;;;2.22;1.10;;;;;;;3.78;100.00;101626.28;5083885;28;20092;-78
2023/03/02 05:53:04;;;;;;;1.98;1.15;;;;;;;3.75;100.00;101625.56;5067456;28;20400;-79
2023/03/02 05:55:30;;;;;;;2.55;1.58;;;;;;;3.71;100.00;101624.88;5084798;28;20115;-79
2023/03/02 05:57:56;;;;;;;4.47;1.52;;;;;;;3.69;100.00;101627.56;5079965;28;20111;-78
2023/03/02 06:00:22;;;;;;;4.43;2.05;;;;;;;3.69;100.00;101626.69;5082353;28;20379;-78
2023/03/02 06:02:48;;;;;;;3.50;1.88;;;;;;;3.66;100.00;101630.31;5086347;28;20052;-79
2023/03/02 06:05:17;;;;;;;3.63;1.77;;;;;;;3.69;100.00;101631.94;5087586;28;20512;-79
2023/03/02 06:07:43;;;;;;;2.60;1.58;;;;;;;3.68;100.00;101627.63;5085660;28;20115;-78
2023/03/02 06:10:11;;;;;;;4.93;1.17;;;;;;;3.68;100.00;101623.22;5087327;28;20089;-78
2023/03/02 06:12:37;;;;;;;3.63;1.25;;;;;;;3.65;100.00;101619.88;5079406;28;20365;-78
2023/03/02 06:15:04;;;;;;;10.77;1.42;;;;;;;3.65;100.00;101620.75;5083211;28;20036;-79
2023/03/02 06:17:30;;;;;;;6.15;1.40;;;;;;;3.61;100.00;101629.66;5082356;28;20033;-78
2023/03/02 06:19:56;;;;;;;3.78;1.30;;;;;;;3.59;100.00;101621.88;5085519;28;20029;-78
2023/03/02 06:22:22;;;;;;;7.07;1.02;;;;;;;3.57;100.00;101621.09;5088452;28;20040;-78
2023/03/02 06:24:48;;;;;;;2.05;0.95;;;;;;;3.56;100.00;101623.78;5074843;28;20027;-78
2023/03/02 06:27:14;;;;;;;1.90;1.00;;;;;;;3.57;100.00;101621.09;5086876;28;20036;-78
2023/03/02 06:29:40;;;;;;;4.03;1.48;;;;;;;3.53;100.00;101622.16;5063598;28;20039;-78
2023/03/02 06:32:06;;;;;;;5.57;1.35;;;;;;;3.54;100.00;101625.59;5085315;28;20031;-78
2023/03/02 06:34:32;;;;;;;1.80;0.88;;;;;;;3.52;100.00;101610.00;5083904;28;20043;-78
2023/03/02 06:36:58;;;;;;;4.53;1.13;;;;;;;3.47;100.00;101618.03;5086185;28;20032;-78
2023/03/02 06:39:24;;;;;;;2.38;1.15;;;;;;;3.45;100.00;101619.91;5091781;28;20670;-78
2023/03/02 06:41:50;;;;;;;7.28;1.20;;;;;;;3.45;100.00;101616.44;5089116;28;20039;-78
2023/03/02 06:44:17;;;;;;;3.38;1.35;;;;;;;3.48;100.00;101616.28;5085392;28;20074;-78
2023/03/02 06:46:44;;;;;;;3.85;1.10;;;;;;;3.52;100.00;101619.63;5056519;28;20441;-78
2023/03/02 06:49:10;;;;;;;2.75;1.08;;;;;;;3.49;100.00;101628.44;5065244;28;20054;-78
2023/03/02 06:51:37;;;;;;;2.15;1.13;;;;;;;3.52;100.00;101622.25;5090938;28;20031;-78
2023/03/02 06:54:05;;;;;;;3.90;1.23;;;;;;;3.53;100.00;101621.31;5077547;28;20120;-78
2023/03/02 06:56:31;;;;;;;3.10;1.40;;;;;;;3.53;100.00;101623.91;5085817;28;20035;-78
2023/03/02 06:58:57;;;;;;;4.10;1.10;;;;;;;3.50;100.00;101624.91;5074892;28;20450;-78
2023/03/02 07:01:23;;;;;;;3.58;1.08;;;;;;;3.47;100.00;101620.66;5081544;28;20062;-78
2023/03/02 07:03:49;;;;;;;3.40;1.33;;;;;;;3.48;100.00;101629.34;5083983;28;20113;-78
2023/03/02 07:06:15;;;;;;;3.15;1.23;;;;;;;3.48;100.00;101629.34;5085789;28;20741;-78
2023/03/02 07:08:41;;;;;;;2.42;1.10;;;;;;;3.50;100.00;101630.16;5079247;28;20040;-78
2023/03/02 07:11:09;;;;;;;3.45;1.00;;;;;;;3.52;100.00;101645.75;5081932;28;20063;-78
2023/03/02 07:13:37;;;;;;;3.90;1.00;;;;;;;3.49;100.00;101638.88;5084143;28;20115;-78
2023/03/02 07:16:13;;;;;;;2.72;1.17;;;;;;;3.53;100.00;101640.47;5086896;28;20044;-78
2023/03/02 07:18:39;;;;;;;7.00;1.73;;;;;;;3.53;100.00;101644.84;5083098;28;20119;-78
2023/03/02 07:21:06;;;;;;;4.43;1.60;;;;;;;3.56;100.00;101649.94;5077622;28;20089;-78
2023/03/02 07:23:32;;;;;;;5.00;1.65;;;;;;;3.56;100.00;101652.53;5080559;28;20052;-78
2023/03/02 07:25:58;;;;;;;4.10;1.80;;;;;;;3.56;100.00;101650.78;5081949;28;20028;-78
2023/03/02 07:28:24;;;;;;;5.45;2.53;;;;;;;3.58;100.00;101651.53;5081194;28;20119;-78
2023/03/02 07:30:52;;;;;;;6.35;2.20;;;;;;;3.61;100.00;101650.56;5083376;28;20028;-78
2023/03/02 07:33:18;;;;;;;6.32;1.88;;;;;;;3.63;100.00;101655.75;5061410;28;20392;-78
2023/03/02 07:35:44;;;;;;;4.18;1.70;;;;;;;3.65;100.00;101653.88;5068865;28;20052;-78
2023/03/02 07:38:10;;;;;;;6.18;1.67;;;;;;;3.64;100.00;101645.22;5085385;28;20353;-78
2023/03/02 07:40:40;;;;;;;4.10;1.63;;;;;;;3.70;100.00;101651.91;5087010;28;20039;-78
2023/03/02 07:43:06;;;;;;;4.57;2.00;;;;;;;3.70;100.00;101655.41;5070275;28;20055;-78
2023/03/02 07:45:32;;;;;;;5.05;1.83;;;;;;;3.72;100.00;101650.94;5087703;28;20504;-78
2023/03/02 07:47:58;;;;;;;2.42;1.98;;;;;;;3.74;100.00;101653.50;5044242;28;20024;-78
2023/03/02 07:50:24;;;;;;;4.32;2.00;;;;;;;3.78;100.00;101655.03;5079092;28;20463;-78
2023/03/02 07:52:49;;;;;;;5.05;2.05;;;;;;;3.79;100.00;101656.72;5081319;28;20036;-78
2023/03/02 07:55:15;;;;;;;6.95;1.90;;;;;;;3.82;100.00;101666.22;5075947;28;21596;-78
2023/03/02 07:57:41;;;;;;;5.55;1.52;;;;;;;3.84;100.00;101664.38;5081735;28;20085;-78
2023/03/02 08:00:08;;;;;;;2.83;1.70;;;;;;;3.87;100.00;101663.41;5082246;28;20039;-78
2023/03/02 08:02:40;;;;;;;3.65;1.55;;;;;;;3.90;100.00;101666.69;5083748;28;20048;-78
2023/03/02 08:05:06;;;;;;;6.35;1.55;;;;;;;3.92;100.00;101658.78;5083772;28;20106;-78
2023/03/02 08:07:32;;;;;;;4.35;1.92;;;;;;;3.95;100.00;101677.81;5061878;28;20025;-78
2023/03/02 08:09:59;;;;;;;2.95;1.90;;;;;;;3.96;100.00;101679.53;5082778;28;20031;-78
2023/03/02 08:12:26;;;;;;;2.85;1.67;;;;;;;3.99;100.00;101678.53;5086485;28;20036;-78
2023/03/02 08:14:52;;;;;;;8.35;2.33;;;;;;;4.02;100.00;101682.75;5083454;28;20635;-78
2023/03/02 08:17:17;;;;;;;2.72;1.67;;;;;;;4.02;100.00;101688.00;5082504;28;20035;-78
2023/03/02 08:19:43;;;;;;;6.20;2.58;;;;;;;4.03;100.00;101690.53;5083045;28;20036;-78
2023/03/02 08:22:09;;;;;;;6.22;2.38;;;;;;;4.05;100.00;101687.84;5066283;28;20034;-78
2023/03/02 08:24:36;;;;;;;7.65;1.83;;;;;;;4.11;100.00;101689.34;5069520;28;20466;-78
2023/03/02 08:27:02;;;;;;;4.22;1.75;;;;;;;4.08;100.00;101683.31;5079398;28;20028;-78
2023/03/02 08:29:29;;;;;;;7.28;2.08;;;;;;;4.08;100.00;101688.56;5081894;28;20040;-78
2023/03/02 08:31:55;;;;;;;3.28;1.48;;;;;;;4.12;100.00;101686.66;5082511;28;20035;-78
2023/03/02 08:34:21;;;;;;;2.17;1.20;;;;;;;4.13;100.00;101690.97;5083350;28;20119;-78
2023/03/02 08:36:47;;;;;;;1.98;1.23;;;;;;;4.16;100.00;101685.59;5088168;28;20475;-78
2023/03/02 08:39:12;;;;;;;3.20;1.63;;;;;;;4.18;100.00;101686.38;5072840;28;20039;-77
2023/03/02 08:41:38;;;;;;;3.92;1.27;;;;;;;4.23;100.00;101680.91;5084564;28;20040;-78
2023/03/02 08:44:04;;;;;;;3.58;1.42;;;;;;;4.24;100.00;101687.84;5081643;28;20032;-79
2023/03/02 08:46:30;;;;;;;2.25;1.58;;;;;;;4.26;100.00;101679.91;5082208;28;20107;-78
2023/03/02 08:48:56;;;;;;;5.15;1.30;;;;;;;4.29;100.00;101680.63;5082990;28;20027;-78
2023/03/02 08:51:24;;;;;;;5.57;1.60;;;;;;;4.29;100.00;101683.25;5086622;28;20036;-78
2023/03/02 08:53:53;;;;;;;3.45;1.58;;;;;;;4.35;100.00;101684.72;5081526;28;20020;-78
2023/03/02 08:56:24;;;;;;;2.15;1.15;;;;;;;4.36;100.00;101691.66;5081865;28;20119;-78
2023/03/02 08:58:51;;;;;;;9.00;1.65;;;;;;;4.39;100.00;101696.75;5077525;28;20056;-78
2023/03/02 09:01:21;;;;;;;3.67;1.73;;;;;;;4.47;100.00;101701.63;5060040;28;20492;-78
2023/03/02 09:03:47;;;;;;;4.32;2.25;;;;;;;4.49;100.00;101697.16;5081682;28;20040;-78
2023/03/02 09:06:14;;;;;;;4.07;1.60;;;;;;;4.54;100.00;101704.81;5083156;28;20069;-78
2023/03/02 09:08:40;;;;;;;5.72;1.80;;;;;;;4.59;100.00;101700.19;5058248;28;20557;-78
2023/03/02 09:11:07;;;;;;;7.30;1.58;;;;;;;4.63;100.00;101698.25;5069905;28;20038;-78
2023/03/02 09:13:34;;;;;;;3.08;1.52;;;;;;;4.68;100.00;101704.97;5087244;28;20028;-78
2023/03/02 09:16:00;;;;;;;4.32;1.80;;;;;;;4.71;100.00;101709.22;5085010;28;20039;-78
2023/03/02 09:18:28;;;;;;;3.33;1.83;;;;;;;4.74;100.00;101709.06;5086428;28;20027;-78
2023/03/02 09:20:55;;;;;;;4.35;2.00;;;;;;;4.74;100.00;101711.69;5087059;28;20123;-78
2023/03/02 09:23:21;;;;;;;4.18;1.90;;;;;;;4.77;100.00;101713.31;5064274;28;20039;-78
2023/03/02 09:25:47;;;;;;;4.38;1.95;;;;;;;4.79;100.00;101714.09;5086786;28;20036;-78
2023/03/02 09:28:14;;;;;;;2.90;2.03;;;;;;;4.90;100.00;101718.78;5074196;28;20081;-78
2023/03/02 09:30:41;;;;;;;5.90;2.35;;;;;;;4.89;100.00;101710.06;5085144;28;20042;-78
2023/03/02 09:33:06;;;;;;;7.88;2.28;;;;;;;4.96;100.00;101721.13;5083042;28;20085;-78
2023/03/02 09:35:32;;;;;;;4.30;1.80;;;;;;;5.05;100.00;101718.03;5079574;28;20138;-78
2023/03/02 09:37:58;;;;;;;6.25;2.35;;;;;;;5.06;100.00;101714.50;5073573;28;20024;-78
2023/03/02 09:40:26;;;;;;;3.30;2.20;;;;;;;5.11;100.00;101718.66;5080340;28;20074;-78
2023/03/02 09:43:30;;;;;;;1.45;1.27;;;;;;;5.21;100.00;101715.50;5081404;28;20028;-78
2023/03/02 09:46:01;;;;;;;5.85;2.00;;;;;;;5.17;100.00;101721.81;5075683;28;20032;-78
2023/03/02 09:48:39;;;;;;;6.32;1.92;;;;;;;5.22;100.00;101713.72;5075370;28;20557;-78
2023/03/02 09:51:34;;;;;;;3.22;2.13;;;;;;;5.25;100.00;101707.47;5080382;28;20032;-78
2023/03/02 09:54:07;;;;;;;4.78;2.40;;;;;;;5.29;100.00;101717.72;5047308;28;20040;-78
2023/03/02 09:56:41;;;;;;;3.30;1.73;;;;;;;5.33;100.00;101710.56;5074442;28;20060;-78
2023/03/02 09:59:16;;;;;;;3.17;2.13;;;;;;;5.50;100.00;101714.06;5087489;28;20123;-78
2023/03/02 10:02:00;;;;;;;3.47;1.90;;;;;;;5.65;100.00;101708.06;5079017;28;20037;-78
2023/03/02 10:04:28;;;;;;;3.35;1.85;;;;;;;5.83;100.00;101713.22;5088652;28;20024;-78
2023/03/02 10:07:08;;;;;;;4.80;3.72;;;;;;;5.84;100.00;101707.06;5065087;28;20094;-78
2023/03/02 10:09:33;;;;;;;3.67;2.53;;;;;;;5.85;100.00;101695.63;5088971;28;20122;-78
2023/03/02 10:12:32;;;;;;;4.07;2.95;;;;;;;5.99;100.00;101700.13;5070120;28;20134;-79
2023/03/02 10:15:13;;;;;;;4.45;2.53;;;;;;;6.13;100.00;101703.84;5056033;28;20051;-78
2023/03/02 10:17:51;;;;;;;4.45;2.60;;;;;;;6.20;100.00;101700.78;5077337;28;20041;-78
2023/03/02 10:20:29;;;;;;;5.43;2.55;;;;;;;6.33;100.00;101707.97;5073349;28;20036;-78
2023/03/02 10:23:27;;;;;;;4.38;3.20;;;;;;;6.40;100.00;101714.56;5085252;28;20106;-78
2023/03/02 10:26:00;;;;;;;5.10;2.85;;;;;;;6.35;100.00;101713.16;5045438;28;20089;-78
2023/03/02 10:28:33;;;;;;;4.93;2.22;;;;;;;6.34;100.00;101720.16;5066199;28;20479;-78
2023/03/02 10:31:08;;;;;;;4.97;1.85;;;;;;;6.26;100.00;101714.50;5019105;28;20028;-78
2023/03/02 10:33:37;;;;;;;2.70;1.80;;;;;;;6.21;100.00;101717.41;5086526;28;20028;-78
2023/03/02 10:36:04;;;;;;;5.90;2.00;;;;;;;6.21;100.00;101712.16;5075011;28;20436;-78
2023/03/02 10:38:31;;;;;;;5.60;1.58;;;;;;;6.22;100.00;101713.81;5083829;28;20036;-78
2023/03/02 10:41:02;;;;;;;2.33;1.40;;;;;;;6.31;100.00;101715.09;5087487;28;20028;-78
2023/03/02 10:43:38;;;;;;;2.15;1.60;;;;;;;6.34;100.00;101709.66;5070320;28;20455;-78
2023/03/02 10:46:10;;;;;;;3.60;1.60;;;;;;;6.37;100.00;101708.66;5083196;28;20096;-78
2023/03/02 10:48:55;;;;;;;2.42;1.30;;;;;;;6.44;100.00;101700.34;5068359;28;20024;-78
2023/03/02 10:51:29;;;;;;;2.92;1.17;;;;;;;6.55;100.00;101702.38;5079974;28;20036;-78
2023/03/02 10:54:05;;;;;;;1.92;1.13;;;;;;;6.59;100.00;101705.69;5070119;28;20055;-78
2023/03/02 10:56:32;;;;;;;1.20;1.08;;;;;;;6.55;100.00;101702.38;5079934;28;20070;-78
2023/03/02 10:59:02;;;;;;;1.65;1.00;;;;;;;6.60;100.00;101706.50;5081301;28;20390;-78
2023/03/02 11:01:31;;;;;;;2.67;0.75;;;;;;;6.60;100.00;101704.75;5079647;28;20061;-78
2023/03/02 11:03:59;;;;;;;1.90;1.15;;;;;;;6.58;100.00;101711.84;5013782;28;20797;-78
2023/03/02 11:06:26;;;;;;;3.53;1.05;;;;;;;6.63;100.00;101709.81;5068669;28;20055;-78
2023/03/02 11:09:04;;;;;;;3.38;1.00;;;;;;;6.71;100.00;101709.38;5060159;28;20040;-78
2023/03/02 11:11:30;;;;;;;6.13;1.60;;;;;;;6.74;100.00;101709.19;5080577;28;20036;-78
2023/03/02 11:14:14;;;;;;;3.63;1.08;;;;;;;6.80;100.00;101708.03;5083750;28;20043;-78
2023/03/02 11:16:40;;;;;;;2.05;1.00;;;;;;;6.73;100.00;101704.88;5084827;28;20541;-78
2023/03/02 11:19:11;;;;;;;3.67;0.77;;;;;;;6.79;100.00;101701.91;5072081;28;20508;-78
2023/03/02 11:21:44;;;;;;;3.13;0.80;;;;;;;6.69;100.00;101698.09;5083957;28;20106;-78
2023/03/02 11:24:15;;;;;;;1.65;0.40;;;;;;;6.57;100.00;101700.50;5060545;28;20024;-78
2023/03/02 11:27:05;;;;;;;1.80;0.45;;;;;;;6.66;100.00;101703.53;5080232;28;20031;-78
2023/03/02 11:29:52;;;;;;;2.63;0.55;;;;;;;6.67;100.00;101698.19;5078320;28;20032;-78
2023/03/02 11:32:40;;;;;;;2.28;1.00;;;;;;;6.80;100.00;101698.34;5082992;28;20392;-78
2023/03/02 11:35:09;;;;;;;2.83;1.10;;;;;;;7.02;100.00;101701.50;5077465;28;20039;-78